Pumpkin Center, Georgia
Current Conditions -  °F | °C
As of 4:15 AM on Sunday 21 Dec 2014 (Local Time) from KHQU Reporting Station
Overcast Overcast  
Wind Chill: 48°   Ceiling: 500
Heat Index: 48°   Visibility: 3mi
Dew Point: 48°   Wind: 3mph
Humidity: 100%   Direction: 60°ENE
Pressure: 30.25"   Gusts: NA
Location:  33.4134°N, 82.3106°W
Report Text: KHQU 210915Z AUTO 06003KT 3SM BKN005 OVC010 09/09 A3025 RMK AO1 T00910091
Loading
Personal Weather Stations






























Interactive Weather Map New forecast layout! Learn more

10-Day Weather Forecast

Advertisements
Track Severe Weather on mobile